Botosani, Romania
Current Conditions -  °F | °C
As of 4:30 PM on Sunday 23 Nov 2014 (Local Time) from LRSV Reporting Station
Haze Haze  
Wind Chill: 26°   Ceiling: 400
Heat Index: 34°   Visibility: 1.8mi
Dew Point: 34°   Wind: 9mph
Humidity: 100%   Direction: 350°N
Pressure: 30.39"   Gusts: NA
Location:  47.75°N, 26.67°E
Report Text: LRSV 231330Z 35008KT 3000 BR BKN004 01/01 Q1029
Loading
Personal Weather Stations






























Interactive Weather Map New forecast layout! Learn more

10-Day Weather Forecast

Advertisements
Track Severe Weather on mobile